createdAt,value
2019-02-21T00:00:25.352Z,100.00
2019-02-21T00:01:25.459Z,100.00
2019-02-21T00:02:25.465Z,100.00
2019-02-21T00:03:25.891Z,100.00
2019-02-21T00:04:26.399Z,100.00
2019-02-21T00:05:26.712Z,100.00
2019-02-21T00:06:27.130Z,100.00
2019-02-21T00:07:27.033Z,100.00
2019-02-21T00:08:27.683Z,100.00
2019-02-21T00:09:28.070Z,100.00
2019-02-21T00:10:28.281Z,100.00
2019-02-21T00:11:29.142Z,100.00
2019-02-21T00:12:28.921Z,100.00
2019-02-21T00:13:29.185Z,100.00
2019-02-21T00:14:29.308Z,100.00
2019-02-21T00:15:28.697Z,100.00
2019-02-21T00:16:29.341Z,100.00
2019-02-21T00:17:29.592Z,100.00
2019-02-21T00:18:29.587Z,100.00
2019-02-21T00:19:30.493Z,100.00
2019-02-21T00:20:31.524Z,100.00
2019-02-21T00:21:31.939Z,100.00
2019-02-21T00:22:31.751Z,100.00
2019-02-21T00:23:32.174Z,100.00
2019-02-21T00:24:32.569Z,100.00
2019-02-21T00:25:32.799Z,100.00
2019-02-21T00:26:33.160Z,100.00
2019-02-21T00:27:33.484Z,100.00
2019-02-21T00:28:33.619Z,100.00
2019-02-21T00:29:33.839Z,100.00
2019-02-21T00:30:35.440Z,100.00
2019-02-21T00:31:34.359Z,100.00
2019-02-21T00:32:34.477Z,100.00
2019-02-21T00:33:34.985Z,100.00
2019-02-21T00:34:34.782Z,100.00
2019-02-21T00:35:35.107Z,100.00
2019-02-21T00:36:35.317Z,100.00
2019-02-21T00:37:35.735Z,100.00
2019-02-21T00:38:35.865Z,100.00
2019-02-21T00:39:35.948Z,100.00
2019-02-21T00:40:36.058Z,100.00
2019-02-21T00:41:36.391Z,100.00
2019-02-21T00:42:36.901Z,100.00
2019-02-21T00:43:36.895Z,100.00
2019-02-21T00:44:36.905Z,100.00
2019-02-21T00:45:37.356Z,100.00
2019-02-21T00:46:37.631Z,100.00
2019-02-21T00:47:37.968Z,100.00
2019-02-21T00:48:38.326Z,100.00
2019-02-21T00:49:38.405Z,100.00
2019-02-21T00:50:38.888Z,100.00
2019-02-21T00:51:39.200Z,100.00
2019-02-21T00:52:39.536Z,100.00
2019-02-21T00:53:39.733Z,100.00
2019-02-21T00:54:40.039Z,100.00
2019-02-21T00:55:40.332Z,100.00
2019-02-21T00:56:40.769Z,100.00
2019-02-21T00:57:41.288Z,100.00
2019-02-21T00:58:41.100Z,100.00
2019-02-21T00:59:41.608Z,100.00
2019-02-21T01:00:46.550Z,100.00
2019-02-21T01:01:41.827Z,100.00
2019-02-21T01:02:41.974Z,100.00
2019-02-21T01:03:42.297Z,100.00
2019-02-21T01:04:42.524Z,100.00
2019-02-21T01:05:42.769Z,100.00
2019-02-21T01:06:43.091Z,100.00
2019-02-21T01:07:43.304Z,100.00
2019-02-21T01:08:43.030Z,100.00
2019-02-21T01:09:43.719Z,100.00
2019-02-21T01:10:43.931Z,100.00
2019-02-21T01:11:43.941Z,100.00
2019-02-21T01:12:44.196Z,100.00
2019-02-21T01:13:44.372Z,100.00
2019-02-21T01:14:44.540Z,100.00
2019-02-21T01:15:44.688Z,100.00
2019-02-21T01:16:44.456Z,100.00
2019-02-21T01:17:45.209Z,100.00
2019-02-21T01:18:44.711Z,100.00
2019-02-21T01:19:44.971Z,100.00
2019-02-21T01:20:45.125Z,100.00
2019-02-21T01:21:45.231Z,100.00
2019-02-21T01:22:45.915Z,100.00
2019-02-21T01:23:46.485Z,100.00
2019-02-21T01:24:46.109Z,100.00
2019-02-21T01:25:46.690Z,100.00
2019-02-21T01:26:46.596Z,100.00
2019-02-21T01:27:47.218Z,100.00
2019-02-21T01:28:47.251Z,100.00
2019-02-21T01:29:46.968Z,100.00
2019-02-21T01:30:56.621Z,100.00
2019-02-21T01:31:47.762Z,100.00
2019-02-21T01:32:47.999Z,100.00
2019-02-21T01:33:48.382Z,100.00
2019-02-21T01:34:52.938Z,100.00
2019-02-21T01:35:48.757Z,100.00
2019-02-21T01:36:48.860Z,100.00
2019-02-21T01:37:48.860Z,100.00
2019-02-21T01:38:49.075Z,100.00
2019-02-21T01:39:49.495Z,100.00
2019-02-21T01:40:49.927Z,100.00
2019-02-21T01:41:50.221Z,100.00
2019-02-21T01:42:50.633Z,100.00
2019-02-21T01:43:51.049Z,100.00
2019-02-21T01:44:51.162Z,100.00
2019-02-21T01:45:51.370Z,100.00
2019-02-21T01:46:51.486Z,100.00
2019-02-21T01:47:51.899Z,100.00
2019-02-21T01:48:51.908Z,100.00
2019-02-21T01:49:52.527Z,100.00
2019-02-21T01:50:52.837Z,100.00
2019-02-21T01:51:53.155Z,100.00
2019-02-21T01:52:53.363Z,100.00
2019-02-21T01:53:53.484Z,100.00
2019-02-21T01:54:53.696Z,100.00
2019-02-21T01:55:53.876Z,100.00
2019-02-21T01:56:54.103Z,100.00
2019-02-21T01:57:54.423Z,100.00
2019-02-21T01:58:54.276Z,100.00
2019-02-21T01:59:54.950Z,100.00
2019-02-21T02:00:55.261Z,100.00
2019-02-21T02:01:55.465Z,100.00
2019-02-21T02:02:55.677Z,100.00
2019-02-21T02:03:56.178Z,100.00
2019-02-21T02:04:56.112Z,100.00
2019-02-21T02:05:56.519Z,100.00
2019-02-21T02:06:56.532Z,100.00
2019-02-21T02:07:56.535Z,100.00
2019-02-21T02:08:56.814Z,100.00
2019-02-21T02:09:56.759Z,100.00
2019-02-21T02:10:56.964Z,100.00
2019-02-21T02:11:57.380Z,100.00
2019-02-21T02:12:57.593Z,100.00
2019-02-21T02:13:57.805Z,100.00
2019-02-21T02:14:57.794Z,100.00
2019-02-21T02:15:58.534Z,100.00
2019-02-21T02:16:58.849Z,100.00
2019-02-21T02:17:59.161Z,100.00
2019-02-21T02:18:58.660Z,100.00
2019-02-21T02:19:59.411Z,100.00
2019-02-21T02:20:59.617Z,100.00
2019-02-21T02:21:59.450Z,100.00
2019-02-21T02:23:00.684Z,100.00
2019-02-21T02:24:01.151Z,100.00
2019-02-21T02:25:01.771Z,100.00
2019-02-21T02:27:01.882Z,100.00
2019-02-21T02:28:01.778Z,100.00
2019-02-21T02:29:02.299Z,100.00
2019-02-21T02:30:02.626Z,100.00
2019-02-21T02:31:02.934Z,100.00
2019-02-21T02:32:03.149Z,100.00
2019-02-21T02:33:03.275Z,100.00
2019-02-21T02:34:03.558Z,100.00
2019-02-21T02:35:03.890Z,100.00
2019-02-21T02:36:04.087Z,100.00
2019-02-21T02:37:04.297Z,100.00
2019-02-21T02:38:04.608Z,100.00
2019-02-21T02:39:05.027Z,100.00
2019-02-21T02:40:05.090Z,100.00
2019-02-21T02:41:05.555Z,100.00
2019-02-21T02:42:05.612Z,100.00
2019-02-21T02:43:05.816Z,100.00
2019-02-21T02:44:05.981Z,100.00
2019-02-21T02:45:06.285Z,100.00
2019-02-21T02:46:06.649Z,100.00
2019-02-21T02:47:06.921Z,100.00
2019-02-21T02:48:07.237Z,100.00
2019-02-21T02:49:07.656Z,100.00
2019-02-21T02:50:08.170Z,100.00
2019-02-21T02:51:07.881Z,100.00
2019-02-21T02:52:08.389Z,100.00
2019-02-21T02:53:08.294Z,100.00
2019-02-21T02:54:08.604Z,100.00
2019-02-21T02:55:08.717Z,100.00
2019-02-21T02:56:09.348Z,100.00
2019-02-21T02:57:08.842Z,100.00
2019-02-21T02:58:09.870Z,100.00
2019-02-21T02:59:09.559Z,100.00
2019-02-21T03:00:13.347Z,100.00
2019-02-21T03:01:09.443Z,100.00
2019-02-21T03:02:09.338Z,100.00
2019-02-21T03:03:09.892Z,100.00
2019-02-21T03:04:09.793Z,100.00
2019-02-21T03:05:10.726Z,100.00
2019-02-21T03:06:10.600Z,100.00
2019-02-21T03:07:10.918Z,100.00
2019-02-21T03:08:11.460Z,100.00
2019-02-21T03:09:11.327Z,100.00
2019-02-21T03:10:11.784Z,100.00
2019-02-21T03:11:12.510Z,100.00
2019-02-21T03:12:12.510Z,100.00
2019-02-21T03:13:12.773Z,100.00
2019-02-21T03:14:13.541Z,100.00
2019-02-21T03:15:13.866Z,100.00
2019-02-21T03:16:13.727Z,100.00
2019-02-21T03:17:14.594Z,100.00
2019-02-21T03:18:14.896Z,100.00
2019-02-21T03:19:15.526Z,100.00
2019-02-21T03:20:15.947Z,100.00
2019-02-21T03:21:16.673Z,100.00
2019-02-21T03:22:16.773Z,100.00
2019-02-21T03:23:17.001Z,100.00
2019-02-21T03:24:16.686Z,100.00
2019-02-21T03:25:17.203Z,100.00
2019-02-21T03:26:17.219Z,100.00
2019-02-21T03:27:17.014Z,100.00
2019-02-21T03:28:17.326Z,100.00
2019-02-21T03:29:17.744Z,100.00
2019-02-21T03:31:18.139Z,100.00
2019-02-21T03:32:18.480Z,100.00
2019-02-21T03:33:18.612Z,100.00
2019-02-21T03:34:18.798Z,100.00
2019-02-21T03:35:19.013Z,100.00
2019-02-21T03:36:19.135Z,100.00
2019-02-21T03:37:19.556Z,100.00
2019-02-21T03:38:19.851Z,100.00
2019-02-21T03:39:20.160Z,100.00
2019-02-21T03:40:20.584Z,100.00
2019-02-21T03:41:20.735Z,100.00
2019-02-21T03:42:20.969Z,100.00
2019-02-21T03:43:21.123Z,100.00
2019-02-21T03:44:21.323Z,100.00
2019-02-21T03:45:21.682Z,100.00
2019-02-21T03:46:21.764Z,100.00
2019-02-21T03:47:22.061Z,100.00
2019-02-21T03:48:22.473Z,100.00
2019-02-21T03:49:23.000Z,100.00
2019-02-21T03:50:22.834Z,100.00
2019-02-21T03:51:23.323Z,100.00
2019-02-21T03:52:23.624Z,100.00
2019-02-21T03:53:23.938Z,100.00
2019-02-21T03:54:23.972Z,100.00
2019-02-21T03:55:24.012Z,100.00
2019-02-21T03:56:24.996Z,100.00
2019-02-21T03:57:24.687Z,100.00
2019-02-21T03:58:24.997Z,100.00
2019-02-21T03:59:25.307Z,100.00
2019-02-21T04:00:25.627Z,100.00
2019-02-21T04:01:26.047Z,100.00
2019-02-21T04:02:26.357Z,100.00
2019-02-21T04:03:26.468Z,100.00
2019-02-21T04:04:26.570Z,100.00
2019-02-21T04:05:26.786Z,100.00
2019-02-21T04:06:27.130Z,100.00
2019-02-21T04:07:27.160Z,100.00
2019-02-21T04:08:27.623Z,100.00
2019-02-21T04:09:27.834Z,100.00
2019-02-21T04:10:28.156Z,100.00
2019-02-21T04:11:28.567Z,100.00
2019-02-21T04:12:28.581Z,100.00
2019-02-21T04:13:28.788Z,100.00
2019-02-21T04:14:28.758Z,100.00
2019-02-21T04:15:29.310Z,100.00
2019-02-21T04:16:29.479Z,100.00
2019-02-21T04:17:29.535Z,100.00
2019-02-21T04:18:29.532Z,100.00
2019-02-21T04:19:30.014Z,100.00
2019-02-21T04:20:30.979Z,100.00
2019-02-21T04:21:31.334Z,100.00
2019-02-21T04:22:31.766Z,100.00
2019-02-21T04:23:32.333Z,100.00
2019-02-21T04:24:32.301Z,100.00
2019-02-21T04:25:32.847Z,100.00
2019-02-21T04:26:32.966Z,100.00
2019-02-21T04:27:32.976Z,100.00
2019-02-21T04:28:33.486Z,100.00
2019-02-21T04:29:33.188Z,100.00
2019-02-21T04:30:33.194Z,100.00
2019-02-21T04:31:34.122Z,100.00
2019-02-21T04:32:34.241Z,100.00
2019-02-21T04:33:34.750Z,100.00
2019-02-21T04:34:35.084Z,100.00
2019-02-21T04:35:35.193Z,100.00
2019-02-21T04:36:35.591Z,100.00
2019-02-21T04:37:35.809Z,100.00
2019-02-21T04:38:36.075Z,100.00
2019-02-21T04:39:36.122Z,100.00
2019-02-21T04:40:36.542Z,100.00
2019-02-21T04:41:36.648Z,100.00
2019-02-21T04:42:36.969Z,100.00
2019-02-21T04:43:37.274Z,100.00
2019-02-21T04:44:37.590Z,100.00
2019-02-21T04:45:38.026Z,100.00
2019-02-21T04:46:38.537Z,100.00
2019-02-21T04:47:38.541Z,100.00
2019-02-21T04:48:38.535Z,100.00
2019-02-21T04:49:39.055Z,100.00
2019-02-21T04:50:38.914Z,100.00
2019-02-21T04:51:39.477Z,100.00
2019-02-21T04:52:38.928Z,100.00
2019-02-21T04:53:39.905Z,100.00
2019-02-21T04:54:40.115Z,100.00
2019-02-21T04:55:40.628Z,100.00
2019-02-21T04:56:40.223Z,100.00
2019-02-21T04:57:40.655Z,100.00
2019-02-21T04:58:41.074Z,100.00
2019-02-21T04:59:41.481Z,100.00
2019-02-21T05:00:41.892Z,100.00
2019-02-21T05:01:42.227Z,100.00
2019-02-21T05:02:42.310Z,100.00
2019-02-21T05:03:42.522Z,100.00
2019-02-21T05:04:42.427Z,100.00
2019-02-21T05:05:43.151Z,100.00
2019-02-21T05:06:43.462Z,100.00
2019-02-21T05:07:43.691Z,100.00
2019-02-21T05:08:43.882Z,100.00
2019-02-21T05:09:43.899Z,100.00
2019-02-21T05:10:44.560Z,100.00
2019-02-21T05:11:44.893Z,100.00
2019-02-21T05:12:44.628Z,100.00
2019-02-21T05:13:45.261Z,100.00
2019-02-21T05:14:44.869Z,100.00
2019-02-21T05:15:45.420Z,100.00
2019-02-21T05:16:44.827Z,100.00
2019-02-21T05:17:45.511Z,100.00
2019-02-21T05:18:45.997Z,100.00
2019-02-21T05:19:46.930Z,100.00
2019-02-21T05:20:47.445Z,100.00
2019-02-21T05:21:47.367Z,100.00
2019-02-21T05:22:47.672Z,100.00
2019-02-21T05:23:47.615Z,100.00
2019-02-21T05:24:48.190Z,100.00
2019-02-21T05:25:48.715Z,100.00
2019-02-21T05:26:48.517Z,100.00
2019-02-21T05:27:48.519Z,100.00
2019-02-21T05:28:49.043Z,100.00
2019-02-21T05:29:49.301Z,100.00
2019-02-21T05:30:49.462Z,100.00
2019-02-21T05:31:49.578Z,100.00
2019-02-21T05:32:49.961Z,100.00
2019-02-21T05:33:50.110Z,100.00
2019-02-21T05:34:50.206Z,100.00
2019-02-21T05:35:50.828Z,100.00
2019-02-21T05:36:51.065Z,100.00
2019-02-21T05:37:51.349Z,100.00
2019-02-21T05:38:51.563Z,100.00
2019-02-21T05:39:52.497Z,100.00
2019-02-21T05:40:52.602Z,100.00
2019-02-21T05:41:52.908Z,100.00
2019-02-21T05:42:52.618Z,100.00
2019-02-21T05:43:53.184Z,100.00
2019-02-21T05:44:53.646Z,100.00
2019-02-21T05:45:54.266Z,100.00
2019-02-21T05:46:54.373Z,100.00
2019-02-21T05:47:54.380Z,100.00
2019-02-21T05:48:54.703Z,100.00
2019-02-21T05:49:54.735Z,100.00
2019-02-21T05:50:54.630Z,100.00
2019-02-21T05:51:54.719Z,100.00
2019-02-21T05:52:55.067Z,100.00
2019-02-21T05:53:54.638Z,100.00
2019-02-21T05:54:54.833Z,100.00
2019-02-21T05:55:55.148Z,100.00
2019-02-21T05:56:55.155Z,100.00
2019-02-21T05:57:55.075Z,100.00
2019-02-21T05:58:55.118Z,100.00
2019-02-21T05:59:55.691Z,100.00
2019-02-21T06:00:55.285Z,100.00
2019-02-21T06:01:56.131Z,100.00
2019-02-21T06:02:56.245Z,100.00
2019-02-21T06:03:56.462Z,100.00
2019-02-21T06:04:56.456Z,100.00
2019-02-21T06:05:56.654Z,100.00
2019-02-21T06:06:56.890Z,100.00
2019-02-21T06:07:57.307Z,100.00
2019-02-21T06:08:57.396Z,100.00
2019-02-21T06:09:57.603Z,100.00
2019-02-21T06:10:57.602Z,100.00
2019-02-21T06:11:58.249Z,100.00
2019-02-21T06:13:00.124Z,100.00
2019-02-21T06:13:58.655Z,100.00
2019-02-21T06:14:58.906Z,100.00
2019-02-21T06:15:59.173Z,100.00
2019-02-21T06:16:58.974Z,100.00
2019-02-21T06:17:59.620Z,100.00
2019-02-21T06:18:59.914Z,100.00
2019-02-21T06:19:59.664Z,100.00
2019-02-21T06:21:00.031Z,100.00
2019-02-21T06:22:10.005Z,100.00
2019-02-21T06:23:00.853Z,100.00
2019-02-21T06:24:00.833Z,100.00
2019-02-21T06:25:01.330Z,100.00
2019-02-21T06:26:01.431Z,100.00
2019-02-21T06:27:01.530Z,100.00
2019-02-21T06:28:02.031Z,100.00
2019-02-21T06:29:02.038Z,100.00
2019-02-21T06:30:02.541Z,100.00
2019-02-21T06:31:02.547Z,100.00
2019-02-21T06:32:13.590Z,100.00
2019-02-21T06:33:05.325Z,100.00
2019-02-21T06:34:03.617Z,100.00
2019-02-21T06:35:03.805Z,100.00
2019-02-21T06:36:03.708Z,100.00
2019-02-21T06:37:03.915Z,100.00
2019-02-21T06:38:04.035Z,100.00
2019-02-21T06:39:06.119Z,100.00
2019-02-21T06:40:04.835Z,100.00
2019-02-21T06:41:04.556Z,100.00
2019-02-21T06:42:05.603Z,100.00
2019-02-21T06:43:05.269Z,100.00
2019-02-21T06:44:05.712Z,100.00
2019-02-21T06:45:06.119Z,100.00
2019-02-21T06:46:06.748Z,100.00
2019-02-21T06:47:06.606Z,100.00
2019-02-21T06:48:06.976Z,100.00
2019-02-21T06:49:07.535Z,100.00
2019-02-21T06:50:07.354Z,100.00
2019-02-21T06:51:07.696Z,100.00
2019-02-21T06:52:08.112Z,100.00
2019-02-21T06:53:08.235Z,100.00
2019-02-21T06:54:08.739Z,100.00
2019-02-21T06:55:08.343Z,100.00
2019-02-21T06:56:08.777Z,100.00
2019-02-21T06:57:09.007Z,100.00
2019-02-21T06:58:08.664Z,100.00
2019-02-21T06:59:09.021Z,100.00
2019-02-21T07:00:09.680Z,100.00
2019-02-21T07:01:09.605Z,100.00
2019-02-21T07:02:09.509Z,100.00
2019-02-21T07:03:15.871Z,100.00
2019-02-21T07:04:10.238Z,100.00
2019-02-21T07:05:10.765Z,100.00
2019-02-21T07:06:11.382Z,100.00
2019-02-21T07:07:11.386Z,100.00
2019-02-21T07:09:11.192Z,100.00
2019-02-21T07:10:11.426Z,100.00
2019-02-21T07:11:11.931Z,100.00
2019-02-21T07:12:11.834Z,100.00
2019-02-21T07:13:12.342Z,100.00
2019-02-21T07:14:12.357Z,100.00
2019-02-21T07:15:14.925Z,100.00
2019-02-21T07:16:13.252Z,100.00
2019-02-21T07:17:12.678Z,100.00
2019-02-21T07:18:13.198Z,100.00
2019-02-21T07:19:13.309Z,100.00
2019-02-21T07:20:13.835Z,100.00
2019-02-21T07:21:13.832Z,100.00
2019-02-21T07:22:17.643Z,100.00
2019-02-21T07:23:14.155Z,100.00
2019-02-21T07:24:14.363Z,100.00
2019-02-21T07:25:14.792Z,100.00
2019-02-21T07:26:15.151Z,100.00
2019-02-21T07:27:15.202Z,100.00
2019-02-21T07:28:16.301Z,100.00
2019-02-21T07:29:15.624Z,100.00
2019-02-21T07:30:20.138Z,100.00
2019-02-21T07:31:27.689Z,100.00
2019-02-21T07:33:27.260Z,100.00
2019-02-21T07:34:16.066Z,100.00
2019-02-21T07:35:16.394Z,100.00
2019-02-21T07:36:16.489Z,100.00
2019-02-21T07:37:19.018Z,100.00
2019-02-21T07:38:17.357Z,100.00
2019-02-21T07:39:20.599Z,100.00
2019-02-21T07:40:20.068Z,100.00
2019-02-21T07:41:18.616Z,100.00
2019-02-21T07:42:18.060Z,100.00
2019-02-21T07:43:20.361Z,100.00
2019-02-21T07:44:18.154Z,100.00
2019-02-21T07:45:18.286Z,100.00
2019-02-21T07:46:18.636Z,100.00
2019-02-21T07:47:18.119Z,100.00
2019-02-21T07:48:19.331Z,100.00
2019-02-21T07:49:20.162Z,100.00
2019-02-21T07:50:19.970Z,100.00
2019-02-21T07:51:20.386Z,100.00
2019-02-21T07:52:20.896Z,100.00
2019-02-21T07:53:21.330Z,100.00
2019-02-21T07:54:21.870Z,100.00
2019-02-21T07:55:21.838Z,100.00
2019-02-21T07:56:22.048Z,100.00
2019-02-21T07:57:22.571Z,100.00
2019-02-21T07:58:22.365Z,100.00
2019-02-21T07:59:22.692Z,100.00
2019-02-21T08:00:22.891Z,100.00
2019-02-21T08:01:23.103Z,100.00
2019-02-21T08:02:23.519Z,100.00
2019-02-21T08:03:30.341Z,100.00
2019-02-21T08:04:24.057Z,100.00
2019-02-21T08:05:24.051Z,100.00
2019-02-21T08:06:24.284Z,100.00
2019-02-21T08:07:26.340Z,100.00
2019-02-21T08:08:24.992Z,100.00
2019-02-21T08:09:27.663Z,100.00
2019-02-21T08:10:33.199Z,100.00
2019-02-21T08:11:25.526Z,100.00
2019-02-21T08:12:25.872Z,100.00
2019-02-21T08:13:26.355Z,100.00
2019-02-21T08:14:26.794Z,100.00
2019-02-21T08:15:27.833Z,100.00
2019-02-21T08:16:27.403Z,100.00
2019-02-21T08:17:28.063Z,100.00
2019-02-21T08:18:27.940Z,100.00
2019-02-21T08:19:28.450Z,100.00
2019-02-21T08:20:34.012Z,100.00
2019-02-21T08:21:28.909Z,100.00
2019-02-21T08:22:28.976Z,100.00
2019-02-21T08:23:29.187Z,100.00
2019-02-21T08:24:29.509Z,100.00
2019-02-21T08:25:29.816Z,100.00
2019-02-21T08:26:30.233Z,100.00
2019-02-21T08:27:30.445Z,100.00
2019-02-21T08:28:30.752Z,100.00
2019-02-21T08:29:31.083Z,100.00
2019-02-21T08:30:33.057Z,100.00
2019-02-21T08:31:31.428Z,100.00
2019-02-21T08:32:31.910Z,100.00
2019-02-21T08:33:31.808Z,100.00
2019-02-21T08:34:32.246Z,100.00
2019-02-21T08:35:32.333Z,100.00
2019-02-21T08:36:32.750Z,100.00
2019-02-21T08:37:33.081Z,100.00
2019-02-21T08:38:32.462Z,100.00
2019-02-21T08:39:33.401Z,100.00
2019-02-21T08:40:33.903Z,100.00
2019-02-21T08:41:33.596Z,100.00
2019-02-21T08:42:34.223Z,100.00
2019-02-21T08:43:34.127Z,100.00
2019-02-21T08:44:34.958Z,100.00
2019-02-21T08:45:35.587Z,100.00
2019-02-21T08:46:35.283Z,100.00
2019-02-21T08:47:35.796Z,100.00
2019-02-21T08:48:36.310Z,100.00
2019-02-21T08:49:36.318Z,100.00
2019-02-21T08:50:35.878Z,100.00
2019-02-21T08:51:36.437Z,100.00
2019-02-21T08:52:36.446Z,100.00
2019-02-21T08:53:36.846Z,100.00
2019-02-21T08:54:37.379Z,100.00
2019-02-21T08:55:36.966Z,100.00
2019-02-21T08:57:37.211Z,100.00
2019-02-21T08:58:37.706Z,100.00
2019-02-21T08:59:38.123Z,100.00
2019-02-21T09:00:38.660Z,100.00
2019-02-21T09:01:38.239Z,100.00
2019-02-21T09:02:38.759Z,100.00
2019-02-21T09:03:38.663Z,100.00
2019-02-21T09:04:39.075Z,100.00
2019-02-21T09:05:39.399Z,100.00
2019-02-21T09:06:39.908Z,100.00
2019-02-21T09:07:39.795Z,100.00
2019-02-21T09:08:40.230Z,100.00
2019-02-21T09:09:40.645Z,100.00
2019-02-21T09:10:41.082Z,100.00
2019-02-21T09:11:41.384Z,100.00
2019-02-21T09:12:41.897Z,100.00
2019-02-21T09:13:41.946Z,100.00
2019-02-21T09:14:41.604Z,100.00
2019-02-21T09:15:42.118Z,100.00
2019-02-21T09:16:41.832Z,100.00
2019-02-21T09:17:42.336Z,100.00
2019-02-21T09:18:42.345Z,100.00
2019-02-21T09:19:42.864Z,100.00
2019-02-21T09:20:42.672Z,100.00
2019-02-21T09:21:42.995Z,100.00
2019-02-21T09:22:43.505Z,100.00
2019-02-21T09:23:43.516Z,100.00
2019-02-21T09:24:43.411Z,100.00
2019-02-21T09:25:43.395Z,100.00
2019-02-21T09:26:44.394Z,100.00
2019-02-21T09:27:44.848Z,100.00
2019-02-21T09:28:45.378Z,100.00
2019-02-21T09:29:45.383Z,100.00
2019-02-21T09:30:45.288Z,100.00
2019-02-21T09:31:45.631Z,100.00
2019-02-21T09:32:46.026Z,100.00
2019-02-21T09:33:46.127Z,100.00
2019-02-21T09:34:46.225Z,100.00
2019-02-21T09:35:46.350Z,100.00
2019-02-21T09:36:46.694Z,100.00
2019-02-21T09:37:46.972Z,100.00
2019-02-21T09:38:47.187Z,100.00
2019-02-21T09:39:47.192Z,100.00
2019-02-21T09:40:47.611Z,100.00
2019-02-21T09:41:48.245Z,100.00
2019-02-21T09:42:48.165Z,100.00
2019-02-21T09:43:51.003Z,100.00
2019-02-21T09:44:49.784Z,100.00
2019-02-21T09:45:48.612Z,100.00
2019-02-21T09:46:49.501Z,100.00
2019-02-21T09:47:50.730Z,100.00
2019-02-21T09:48:50.837Z,100.00
2019-02-21T09:49:50.645Z,100.00
2019-02-21T09:50:51.059Z,100.00
2019-02-21T09:51:51.590Z,100.00
2019-02-21T09:52:51.273Z,100.00
2019-02-21T09:53:51.790Z,100.00
2019-02-21T09:54:51.698Z,100.00
2019-02-21T09:55:52.077Z,100.00
2019-02-21T09:56:53.229Z,100.00
2019-02-21T09:57:52.645Z,100.00
2019-02-21T09:58:53.155Z,100.00
2019-02-21T09:59:53.061Z,100.00
2019-02-21T10:00:53.475Z,100.00
2019-02-21T10:01:53.899Z,100.00
2019-02-21T10:02:56.653Z,100.00
2019-02-21T10:03:57.220Z,100.00
2019-02-21T10:05:04.460Z,100.00
2019-02-21T10:05:55.249Z,100.00
2019-02-21T10:06:55.661Z,100.00
2019-02-21T10:07:55.783Z,100.00
2019-02-21T10:08:56.094Z,100.00
2019-02-21T10:09:56.504Z,100.00
2019-02-21T10:10:56.919Z,100.00
2019-02-21T10:11:59.109Z,100.00
2019-02-21T10:12:57.767Z,100.00
2019-02-21T10:13:57.858Z,100.00
2019-02-21T10:14:58.206Z,100.00
2019-02-21T10:15:58.177Z,100.00
2019-02-21T10:16:59.111Z,100.00
2019-02-21T10:17:59.557Z,100.00
2019-02-21T10:19:00.041Z,100.00
2019-02-21T10:20:00.444Z,100.00
2019-02-21T10:21:00.563Z,100.00
2019-02-21T10:22:00.810Z,100.00
2019-02-21T10:23:00.995Z,100.00
2019-02-21T10:24:01.317Z,100.00
2019-02-21T10:25:01.514Z,100.00
2019-02-21T10:26:01.934Z,100.00
2019-02-21T10:27:02.156Z,100.00
2019-02-21T10:28:02.662Z,100.00
2019-02-21T10:29:03.093Z,100.00
2019-02-21T10:30:03.492Z,100.00
2019-02-21T10:31:03.601Z,100.00
2019-02-21T10:32:04.019Z,100.00
2019-02-21T10:33:03.717Z,100.00
2019-02-21T10:34:04.355Z,100.00
2019-02-21T10:35:03.734Z,100.00
2019-02-21T10:36:04.856Z,100.00
2019-02-21T10:37:05.285Z,100.00
2019-02-21T10:38:05.695Z,100.00
2019-02-21T10:39:05.612Z,100.00
2019-02-21T10:40:06.535Z,100.00
2019-02-21T10:41:08.843Z,100.00
2019-02-21T10:42:06.540Z,100.00
2019-02-21T10:43:07.267Z,100.00
2019-02-21T10:44:07.801Z,100.00
2019-02-21T10:45:07.478Z,100.00
2019-02-21T10:46:07.895Z,100.00
2019-02-21T10:47:08.478Z,100.00
2019-02-21T10:48:08.216Z,100.00
2019-02-21T10:49:08.742Z,100.00
2019-02-21T10:50:13.987Z,100.00
2019-02-21T10:52:09.061Z,100.00
2019-02-21T10:53:09.069Z,100.00
2019-02-21T10:54:09.599Z,100.00
2019-02-21T10:55:09.487Z,100.00
2019-02-21T10:56:09.872Z,100.00
2019-02-21T10:57:10.224Z,100.00
2019-02-21T10:58:10.638Z,100.00
2019-02-21T10:59:11.063Z,100.00
2019-02-21T11:00:11.675Z,100.00
2019-02-21T11:01:11.990Z,100.00
2019-02-21T11:02:11.888Z,100.00
2019-02-21T11:03:12.207Z,100.00
2019-02-21T11:04:12.639Z,100.00
2019-02-21T11:05:13.156Z,100.00
2019-02-21T11:06:13.152Z,100.00
2019-02-21T11:07:13.175Z,100.00
2019-02-21T11:08:13.158Z,100.00
2019-02-21T11:09:13.578Z,100.00
2019-02-21T11:10:13.595Z,100.00
2019-02-21T11:11:14.205Z,100.00
2019-02-21T11:12:14.108Z,100.00
2019-02-21T11:13:14.216Z,100.00
2019-02-21T11:14:14.427Z,100.00
2019-02-21T11:15:14.964Z,100.00
2019-02-21T11:16:14.953Z,100.00
2019-02-21T11:17:15.470Z,100.00
2019-02-21T11:18:15.378Z,100.00
2019-02-21T11:19:15.894Z,100.00
2019-02-21T11:20:15.923Z,100.00
2019-02-21T11:21:15.908Z,100.00
2019-02-21T11:22:16.429Z,100.00
2019-02-21T11:23:16.032Z,100.00
2019-02-21T11:24:15.985Z,100.00
2019-02-21T11:25:16.765Z,100.00
2019-02-21T11:26:17.043Z,100.00
2019-02-21T11:27:17.279Z,100.00
2019-02-21T11:29:17.301Z,100.00
2019-02-21T11:30:17.507Z,100.00
2019-02-21T11:31:17.519Z,100.00
2019-02-21T11:32:18.278Z,100.00
2019-02-21T11:33:18.339Z,100.00
2019-02-21T11:34:18.361Z,100.00
2019-02-21T11:35:18.282Z,100.00
2019-02-21T11:36:19.078Z,100.00
2019-02-21T11:37:19.084Z,100.00
2019-02-21T11:38:20.317Z,99.96
2019-02-21T11:39:20.223Z,100.00
2019-02-21T11:40:20.434Z,100.00
2019-02-21T11:41:20.758Z,100.00
2019-02-21T11:42:21.167Z,99.23
2019-02-21T11:43:21.458Z,98.85
2019-02-21T11:44:21.896Z,98.21
2019-02-21T11:45:22.339Z,97.60
2019-02-21T11:46:22.728Z,97.25
2019-02-21T11:47:23.246Z,96.75
2019-02-21T11:48:22.844Z,95.53
2019-02-21T11:49:23.056Z,94.31
2019-02-21T11:50:23.369Z,91.57
2019-02-21T11:51:23.793Z,90.89
2019-02-21T11:52:24.198Z,90.34
2019-02-21T11:53:24.437Z,88.48
2019-02-21T11:54:27.237Z,88.80
2019-02-21T11:55:24.833Z,90.21
2019-02-21T11:56:24.949Z,89.05
2019-02-21T11:57:25.258Z,88.93
2019-02-21T11:58:25.469Z,89.33
2019-02-21T11:59:25.989Z,88.35
2019-02-21T12:00:25.895Z,88.17
2019-02-21T12:01:26.111Z,86.74
2019-02-21T12:02:26.429Z,85.93
2019-02-21T12:03:26.942Z,86.32
2019-02-21T12:04:26.940Z,88.11
2019-02-21T12:05:31.433Z,87.46
2019-02-21T12:06:27.391Z,87.68
2019-02-21T12:07:27.882Z,86.95
2019-02-21T12:08:28.198Z,86.35
2019-02-21T12:09:28.313Z,87.40
2019-02-21T12:10:28.421Z,87.30
2019-02-21T12:11:28.529Z,87.59
2019-02-21T12:12:28.733Z,86.37
2019-02-21T12:13:29.150Z,84.87
2019-02-21T12:14:29.158Z,83.70
2019-02-21T12:15:30.086Z,83.03
2019-02-21T12:16:30.510Z,81.99
2019-02-21T12:17:31.016Z,81.45
2019-02-21T12:18:31.196Z,80.03
2019-02-21T12:19:31.340Z,77.99
2019-02-21T12:20:31.555Z,75.56
2019-02-21T12:21:31.777Z,75.97
2019-02-21T12:22:32.174Z,75.38
2019-02-21T12:23:32.393Z,74.64
2019-02-21T12:24:32.555Z,74.82
2019-02-21T12:25:32.858Z,73.84
2019-02-21T12:26:33.123Z,70.83
2019-02-21T12:27:33.447Z,68.29
2019-02-21T12:28:33.378Z,68.41
2019-02-21T12:29:34.312Z,69.08
2019-02-21T12:30:33.599Z,68.74
2019-02-21T12:31:33.885Z,68.16
2019-02-21T12:32:34.299Z,64.39
2019-02-21T12:33:34.714Z,64.93
2019-02-21T12:34:35.737Z,67.58
2019-02-21T12:35:35.758Z,69.42
2019-02-21T12:36:35.544Z,69.40
2019-02-21T12:37:35.958Z,68.52
2019-02-21T12:38:36.377Z,69.28
2019-02-21T12:39:36.746Z,69.01
2019-02-21T12:40:37.107Z,69.06